Time;durP1;ratioP1;P1;durP2;ratioP2;P2;SDS_P1;SDS_P2;PMS_P1;PMS_P2;Temp;Humidity;BMP_temperature;BMP_pressure;BME280_temperature;BME280_humidity;BME280_pressure;Samples;Min_cycle;Max_cycle;Signal;HPM_P1;HPM_P2
2021/09/10 04:22:22;;;;;;;5.55;3.00;;;21.30;84.50;;;;;;5032511;28;80853;-54
2021/09/10 04:24:47;;;;;;;7.13;2.97;;;21.20;84.90;;;;;;5023312;28;81780;-54
2021/09/10 04:27:13;;;;;;;16.25;3.00;;;21.20;84.70;;;;;;5018323;28;80593;-52
2021/09/10 04:29:39;;;;;;;7.95;3.10;;;21.20;84.60;;;;;;5021414;28;82299;-52
2021/09/10 04:32:05;;;;;;;9.75;2.97;;;21.30;84.60;;;;;;5020975;28;81941;-51
2021/09/10 04:34:30;;;;;;;7.70;3.28;;;21.30;84.20;;;;;;5023391;28;81545;-49
2021/09/10 04:36:56;;;;;;;13.82;3.03;;;21.30;84.00;;;;;;5022765;28;81189;-52
2021/09/10 04:39:22;;;;;;;12.45;3.35;;;21.30;83.80;;;;;;5023047;28;80969;-50
2021/09/10 04:41:47;;;;;;;7.03;2.72;;;21.40;83.20;;;;;;5023173;28;81546;-51
2021/09/10 04:44:13;;;;;;;10.38;3.22;;;21.40;83.50;;;;;;5018817;28;80639;-51
2021/09/10 04:46:39;;;;;;;6.68;2.80;;;21.40;83.80;;;;;;5023184;28;80686;-50
2021/09/10 04:49:04;;;;;;;10.30;3.13;;;21.40;83.80;;;;;;5020171;28;83641;-54
2021/09/10 04:51:30;;;;;;;9.80;2.67;;;21.40;83.70;;;;;;5006129;28;80742;-51
2021/09/10 04:53:57;;;;;;;7.28;2.40;;;21.50;83.70;;;;;;4998587;28;81285;-49
2021/09/10 04:56:23;;;;;;;7.30;2.63;;;21.50;83.50;;;;;;4987669;28;82794;-49
2021/09/10 04:58:49;;;;;;;6.47;2.65;;;21.60;83.20;;;;;;4991679;28;82922;-49
2021/09/10 05:01:14;;;;;;;4.40;2.90;;;21.50;83.00;;;;;;5003031;28;80730;-52
2021/09/10 05:03:40;;;;;;;14.02;2.42;;;21.50;82.90;;;;;;5003051;28;81246;-54
2021/09/10 05:06:06;;;;;;;7.18;3.72;;;21.60;82.30;;;;;;5002866;28;81852;-58
2021/09/10 05:08:32;;;;;;;6.72;2.92;;;21.70;78.50;;;;;;4990340;28;83505;-57
2021/09/10 05:10:58;;;;;;;7.03;3.10;;;21.90;79.90;;;;;;4985142;28;81837;-54
2021/09/10 05:13:23;;;;;;;8.30;2.80;;;22.20;79.60;;;;;;4982717;28;80952;-56
2021/09/10 05:15:49;;;;;;;10.05;3.00;;;22.50;78.90;;;;;;4983501;28;81419;-56
2021/09/10 05:18:15;;;;;;;8.27;3.63;;;22.60;77.90;;;;;;4983508;28;82182;-56
2021/09/10 05:20:40;;;;;;;9.52;3.33;;;22.80;77.50;;;;;;4991334;28;82802;-58
2021/09/10 05:23:06;;;;;;;6.97;3.30;;;22.90;76.90;;;;;;4986460;28;80837;-58
2021/09/10 05:25:32;;;;;;;7.22;3.42;;;23.00;76.30;;;;;;4983014;28;80632;-57
2021/09/10 05:27:57;;;;;;;10.45;3.78;;;23.10;75.80;;;;;;4998485;28;82587;-55
2021/09/10 05:30:23;;;;;;;9.95;3.30;;;23.10;75.40;;;;;;5001023;28;81621;-58
2021/09/10 05:32:49;;;;;;;8.35;3.50;;;23.10;75.30;;;;;;4992813;28;80619;-58
2021/09/10 05:35:15;;;;;;;7.78;3.08;;;23.20;75.10;;;;;;4989477;28;80840;-58
2021/09/10 05:37:41;;;;;;;7.30;3.13;;;23.20;75.00;;;;;;4988593;28;81124;-59
2021/09/10 05:40:08;;;;;;;9.23;3.25;;;23.20;74.70;;;;;;4980649;28;82991;-58
2021/09/10 05:42:33;;;;;;;5.50;3.25;;;23.20;74.60;;;;;;4989327;28;81140;-58
2021/09/10 05:44:59;;;;;;;8.13;2.97;;;23.20;74.60;;;;;;4979135;28;80649;-57
2021/09/10 05:47:25;;;;;;;6.68;3.03;;;23.20;74.60;;;;;;4985021;28;83205;-59
2021/09/10 05:49:51;;;;;;;8.25;2.97;;;23.20;74.50;;;;;;4989080;28;83247;-59
2021/09/10 05:52:16;;;;;;;6.68;3.17;;;23.30;74.50;;;;;;4989205;28;81176;-58
2021/09/10 05:54:42;;;;;;;6.85;3.20;;;23.30;74.40;;;;;;4988494;28;80693;-59
2021/09/10 05:57:08;;;;;;;7.28;3.30;;;23.30;74.40;;;;;;4987901;28;81991;-60
2021/09/10 05:59:33;;;;;;;6.13;2.63;;;23.30;74.40;;;;;;4989200;28;80905;-60
2021/09/10 06:01:59;;;;;;;6.05;3.15;;;23.40;74.30;;;;;;4986912;28;80725;-60
2021/09/10 06:04:25;;;;;;;8.20;3.33;;;23.40;74.30;;;;;;4979697;28;80606;-59
2021/09/10 06:06:50;;;;;;;5.05;3.17;;;23.40;74.30;;;;;;4977453;28;82863;-57
2021/09/10 06:09:17;;;;;;;6.75;2.83;;;23.40;74.20;;;;;;4987105;28;81418;-59
2021/09/10 06:11:43;;;;;;;7.40;3.05;;;23.40;74.20;;;;;;4977385;28;80619;-59
2021/09/10 06:14:08;;;;;;;5.10;2.75;;;23.50;74.20;;;;;;4988983;28;80788;-59
2021/09/10 06:16:34;;;;;;;7.15;3.13;;;23.40;74.10;;;;;;4987981;28;81875;-59
2021/09/10 06:19:00;;;;;;;4.18;2.47;;;23.50;74.10;;;;;;4988370;28;80633;-59
2021/09/10 06:21:26;;;;;;;5.47;2.65;;;23.50;74.10;;;;;;4987567;28;81286;-58
2021/09/10 06:23:52;;;;;;;4.88;2.85;;;23.50;74.10;;;;;;4987769;28;80849;-60
2021/09/10 06:26:19;;;;;;;5.07;2.50;;;23.50;74.00;;;;;;4980088;28;81418;-59
2021/09/10 06:28:45;;;;;;;4.57;2.63;;;23.50;74.00;;;;;;4968420;28;82977;-60
2021/09/10 06:31:11;;;;;;;3.95;2.40;;;23.60;74.00;;;;;;4979389;28;81120;-60
2021/09/10 06:33:36;;;;;;;6.82;2.83;;;23.60;73.90;;;;;;4984005;28;81039;-59
2021/09/10 06:36:02;;;;;;;6.43;2.38;;;23.60;73.90;;;;;;4984386;28;81738;-59
2021/09/10 06:38:28;;;;;;;9.02;2.88;;;23.60;73.80;;;;;;4984995;28;81316;-59
2021/09/10 06:40:54;;;;;;;6.47;2.50;;;23.60;73.70;;;;;;4996647;28;80978;-59
2021/09/10 06:43:19;;;;;;;5.18;2.67;;;23.60;73.70;;;;;;4991642;28;82018;-60
2021/09/10 06:45:46;;;;;;;5.68;2.60;;;23.70;73.60;;;;;;4970981;28;81193;-59
2021/09/10 06:48:12;;;;;;;5.00;2.30;;;23.70;73.60;;;;;;4968715;28;81546;-59
2021/09/10 06:50:37;;;;;;;4.30;2.63;;;23.70;73.50;;;;;;4968527;28;81922;-59
2021/09/10 06:53:03;;;;;;;5.07;2.55;;;23.70;73.50;;;;;;4987764;28;81477;-58
2021/09/10 06:55:29;;;;;;;9.15;2.63;;;23.70;73.40;;;;;;4987977;28;81008;-59
2021/09/10 06:57:54;;;;;;;4.45;2.25;;;23.80;73.40;;;;;;4983886;28;81872;-58
2021/09/10 07:00:20;;;;;;;5.47;2.50;;;23.80;73.40;;;;;;4971198;28;81215;-60
2021/09/10 07:02:46;;;;;;;4.28;2.13;;;23.70;73.20;;;;;;4983297;28;81120;-59
2021/09/10 07:05:12;;;;;;;3.47;2.50;;;23.80;73.20;;;;;;4987707;28;81208;-59
2021/09/10 07:07:38;;;;;;;6.28;2.50;;;23.80;73.10;;;;;;4985760;28;83431;-59
2021/09/10 07:10:04;;;;;;;4.38;2.47;;;23.80;73.10;;;;;;4973699;28;80555;-58
2021/09/10 07:12:30;;;;;;;4.13;2.40;;;23.90;73.10;;;;;;4983211;28;81021;-59
2021/09/10 07:14:55;;;;;;;6.22;2.05;;;23.90;73.00;;;;;;4972272;28;81328;-58
2021/09/10 07:17:22;;;;;;;4.53;2.25;;;23.90;73.00;;;;;;4987310;28;82764;-59
2021/09/10 07:19:48;;;;;;;4.85;2.40;;;23.90;72.90;;;;;;4987057;28;82045;-59
2021/09/10 07:22:14;;;;;;;4.70;2.63;;;23.90;72.90;;;;;;4986849;28;80627;-55
2021/09/10 07:24:40;;;;;;;4.07;2.45;;;23.90;72.80;;;;;;4987622;28;81126;-59
2021/09/10 07:27:05;;;;;;;3.75;2.25;;;23.90;72.70;;;;;;4975780;28;81884;-59
2021/09/10 07:29:31;;;;;;;5.05;2.30;;;23.90;72.70;;;;;;4968018;28;82007;-59
2021/09/10 07:31:57;;;;;;;4.22;2.28;;;23.90;72.70;;;;;;4968428;28;80662;-60
2021/09/10 07:34:22;;;;;;;4.55;2.13;;;24.00;72.60;;;;;;4968491;28;81617;-59
2021/09/10 07:36:49;;;;;;;4.53;2.28;;;24.00;72.60;;;;;;4967872;28;81353;-60
2021/09/10 07:39:19;;;;;;;6.63;2.05;;;24.00;72.60;;;;;;4967986;28;80989;-59
2021/09/10 07:41:48;;;;;;;5.80;2.35;;;24.00;72.50;;;;;;4969788;28;80978;-59
2021/09/10 07:44:16;;;;;;;3.97;2.15;;;24.00;72.50;;;;;;4978896;28;81837;-59
2021/09/10 07:46:43;;;;;;;5.20;2.15;;;24.00;72.50;;;;;;4967756;28;82905;-58
2021/09/10 07:49:09;;;;;;;3.45;2.33;;;24.00;72.40;;;;;;4967863;28;80778;-59
2021/09/10 07:51:36;;;;;;;5.47;2.38;;;24.00;72.40;;;;;;4967239;28;81782;-60
2021/09/10 07:54:06;;;;;;;4.85;2.20;;;24.00;72.40;;;;;;4971777;28;81718;-57
2021/09/10 07:56:32;;;;;;;3.80;2.10;;;24.10;72.40;;;;;;4980468;28;81368;-59
2021/09/10 07:58:58;;;;;;;5.05;2.35;;;24.10;72.30;;;;;;4967900;28;80845;-59
2021/09/10 08:01:24;;;;;;;5.13;2.33;;;24.10;72.30;;;;;;4967956;28;81113;-59
2021/09/10 08:03:50;;;;;;;4.65;1.90;;;24.10;72.30;;;;;;4967775;28;81840;-59
2021/09/10 08:06:16;;;;;;;4.57;2.13;;;24.10;72.20;;;;;;4984509;28;80570;-57
2021/09/10 08:08:42;;;;;;;5.72;2.10;;;24.10;72.20;;;;;;4987468;28;80508;-60
2021/09/10 08:11:07;;;;;;;3.80;1.92;;;24.10;72.10;;;;;;4987333;28;81302;-59
2021/09/10 08:13:33;;;;;;;4.38;1.77;;;24.10;72.10;;;;;;4985914;28;83104;-60
2021/09/10 08:15:59;;;;;;;3.88;2.00;;;24.10;72.00;;;;;;4982461;28;82493;-60
2021/09/10 08:18:24;;;;;;;3.50;1.92;;;24.10;72.00;;;;;;4968004;28;80890;-60
2021/09/10 08:20:50;;;;;;;3.92;1.83;;;24.20;72.00;;;;;;4967180;28;80897;-60
2021/09/10 08:23:16;;;;;;;3.85;2.00;;;24.10;71.90;;;;;;4967601;28;83534;-59
2021/09/10 08:25:42;;;;;;;3.78;2.13;;;24.20;71.90;;;;;;4966904;28;82335;-59
2021/09/10 08:28:08;;;;;;;4.57;1.70;;;24.20;71.90;;;;;;4967404;28;82323;-59
2021/09/10 08:30:33;;;;;;;3.75;2.15;;;24.20;71.80;;;;;;4966785;28;81089;-59
2021/09/10 08:32:59;;;;;;;3.25;1.80;;;24.20;71.80;;;;;;4966719;28;81655;-60
2021/09/10 08:35:25;;;;;;;4.10;2.13;;;24.20;71.80;;;;;;4966679;28;83241;-60
2021/09/10 08:37:51;;;;;;;3.63;1.90;;;24.20;71.70;;;;;;4966239;28;84430;-59
2021/09/10 08:40:18;;;;;;;3.72;1.88;;;24.20;71.70;;;;;;4966771;28;81380;-59
2021/09/10 08:42:45;;;;;;;3.13;1.88;;;24.20;71.60;;;;;;4966640;28;83828;-59
2021/09/10 08:45:16;;;;;;;3.78;2.38;;;24.30;71.70;;;;;;4966569;28;83586;-60
2021/09/10 08:47:43;;;;;;;2.97;1.40;;;24.30;71.60;;;;;;4966462;28;82129;-57
2021/09/10 08:50:10;;;;;;;3.72;2.20;;;24.30;71.60;;;;;;4966764;28;81006;-59
2021/09/10 08:52:36;;;;;;;3.38;1.80;;;24.30;71.60;;;;;;4976806;28;82357;-60
2021/09/10 08:55:05;;;;;;;4.22;2.55;;;24.30;71.50;;;;;;4981755;28;83906;-60
2021/09/10 08:57:33;;;;;;;4.00;1.85;;;24.30;71.50;;;;;;4977203;28;83224;-60
2021/09/10 09:00:07;;;;;;;7.18;2.10;;;24.30;71.50;;;;;;4985341;28;81921;-59
2021/09/10 09:02:33;;;;;;;4.32;2.22;;;24.30;71.80;;;;;;4985517;28;82566;-60
2021/09/10 09:04:58;;;;;;;3.00;1.63;;;24.30;71.40;;;;;;4981460;28;82599;-58
2021/09/10 09:07:28;;;;;;;3.90;1.83;;;24.30;72.00;;;;;;4967507;28;81426;-60
2021/09/10 09:09:59;;;;;;;2.58;1.52;;;24.30;71.40;;;;;;4969163;28;83262;-60
2021/09/10 09:12:32;;;;;;;5.70;2.08;;;24.40;71.40;;;;;;4970204;28;81775;-59
2021/09/10 09:15:00;;;;;;;4.25;2.28;;;24.40;71.40;;;;;;4989155;28;81362;-59
2021/09/10 09:17:32;;;;;;;5.68;2.05;;;24.40;71.30;;;;;;4989923;28;81049;-60
2021/09/10 09:20:18;;;;;;;3.53;2.08;;;24.40;71.30;;;;;;4987679;28;81552;-59
2021/09/10 09:23:07;;;;;;;3.67;1.95;;;24.40;71.30;;;;;;4972648;28;81606;-58
2021/09/10 09:25:41;;;;;;;2.30;1.67;;;24.40;71.30;;;;;;4969191;28;83194;-59
2021/09/10 09:28:27;;;;;;;3.20;1.75;;;24.40;71.20;;;;;;4978824;28;83309;-60
2021/09/10 09:31:01;;;;;;;4.43;2.38;;;24.40;71.30;;;;;;4989042;28;81054;-59
2021/09/10 09:33:32;;;;;;;3.97;1.92;;;24.40;71.20;;;;;;4989281;28;81890;-59
2021/09/10 09:36:01;;;;;;;3.50;1.90;;;24.40;71.20;;;;;;4971833;28;81535;-60
2021/09/10 09:38:39;;;;;;;3.95;1.77;;;24.50;71.20;;;;;;4968602;28;83594;-59
2021/09/10 09:41:07;;;;;;;3.45;1.65;;;24.40;71.20;;;;;;4969243;28;81033;-60
2021/09/10 09:43:35;;;;;;;2.67;1.52;;;24.40;71.20;;;;;;4983265;28;83665;-60
2021/09/10 09:46:04;;;;;;;3.33;1.58;;;24.40;71.20;;;;;;4986571;28;81658;-57
2021/09/10 09:48:29;;;;;;;2.95;1.63;;;24.40;71.20;;;;;;4988636;28;81144;-60
2021/09/10 09:50:57;;;;;;;4.22;1.90;;;24.50;71.20;;;;;;4987816;28;82011;-60
2021/09/10 09:53:23;;;;;;;2.90;1.65;;;24.40;71.20;;;;;;4983891;28;81928;-58
2021/09/10 09:55:50;;;;;;;3.92;2.03;;;24.40;71.20;;;;;;4971852;28;81812;-60
2021/09/10 09:58:16;;;;;;;4.07;1.30;;;24.50;71.20;;;;;;4989038;28;83361;-60
2021/09/10 10:00:47;;;;;;;3.03;1.58;;;24.50;71.20;;;;;;4997646;28;81151;-60
2021/09/10 10:03:13;;;;;;;2.90;1.73;;;24.40;71.10;;;;;;4993097;28;81903;-60
2021/09/10 10:06:03;;;;;;;2.58;1.67;;;24.50;71.20;;;;;;4976636;28;82522;-58
2021/09/10 10:08:53;;;;;;;3.03;1.75;;;24.40;71.20;;;;;;4976982;28;82849;-59
2021/09/10 10:11:25;;;;;;;3.53;1.85;;;24.50;71.20;;;;;;4987937;28;81426;-60
2021/09/10 10:14:02;;;;;;;3.65;2.30;;;24.50;71.80;;;;;;4987220;28;81995;-60
2021/09/10 10:16:35;;;;;;;2.72;1.42;;;24.50;71.20;;;;;;4987486;28;84276;-60
2021/09/10 10:19:02;;;;;;;2.67;1.40;;;24.50;71.20;;;;;;4985866;28;82873;-59
2021/09/10 10:21:53;;;;;;;3.10;1.67;;;24.50;71.20;;;;;;4987413;28;81360;-59
2021/09/10 10:24:38;;;;;;;2.97;1.63;;;24.50;71.20;;;;;;4986674;28;83315;-60
2021/09/10 10:27:35;;;;;;;2.83;1.85;;;24.50;71.20;;;;;;4987156;28;83921;-60
2021/09/10 10:30:14;;;;;;;4.30;1.70;;;24.50;71.20;;;;;;4978350;28;82307;-60
2021/09/10 10:32:44;;;;;;;3.50;2.00;;;24.50;71.20;;;;;;4987014;28;81973;-59
2021/09/10 10:35:40;;;;;;;3.42;1.83;;;24.60;71.20;;;;;;4977233;28;82455;-59
2021/09/10 10:38:07;;;;;;;2.55;1.20;;;24.50;71.20;;;;;;4982050;28;82159;-59
2021/09/10 10:40:37;;;;;;;3.40;1.80;;;24.50;71.20;;;;;;4986385;28;83695;-60
2021/09/10 10:43:27;;;;;;;3.20;1.90;;;24.50;71.20;;;;;;4985222;28;82174;-60
2021/09/10 10:46:07;;;;;;;4.75;2.20;;;24.60;71.20;;;;;;4976210;28;83567;-60
2021/09/10 10:48:33;;;;;;;3.00;2.03;;;24.60;71.20;;;;;;4985043;28;82242;-60
2021/09/10 10:51:16;;;;;;;3.45;1.80;;;24.60;71.20;;;;;;4986025;28;82085;-59
2021/09/10 10:53:44;;;;;;;2.55;1.42;;;24.60;71.20;;;;;;4986840;28;81523;-60
2021/09/10 10:56:41;;;;;;;2.75;1.80;;;24.60;71.20;;;;;;4987127;28;81797;-60
2021/09/10 10:59:15;;;;;;;2.92;1.95;;;24.60;71.20;;;;;;4984595;28;83900;-59
2021/09/10 11:04:48;;;;;;;2.67;1.30;;;24.60;71.20;;;;;;4982956;28;81078;-60
2021/09/10 11:07:18;;;;;;;2.83;1.58;;;24.60;71.20;;;;;;4987554;28;81763;-58
2021/09/10 11:10:15;;;;;;;2.55;1.50;;;24.60;71.20;;;;;;4986109;28;83060;-58
2021/09/10 11:12:43;;;;;;;2.72;1.48;;;24.60;71.20;;;;;;4986196;28;84790;-60
2021/09/10 11:15:30;;;;;;;3.65;1.85;;;24.60;71.20;;;;;;4986287;28;81339;-60
2021/09/10 11:17:57;;;;;;;3.47;1.75;;;24.60;71.20;;;;;;4986357;28;83178;-59
2021/09/10 11:20:46;;;;;;;3.85;1.85;;;24.60;71.20;;;;;;4983490;28;82208;-60
2021/09/10 11:23:18;;;;;;;3.13;1.77;;;24.70;71.20;;;;;;4992448;28;83606;-60
2021/09/10 11:25:45;;;;;;;3.13;2.10;;;24.60;71.20;;;;;;4983094;28;82209;-61
2021/09/10 11:28:11;;;;;;;2.50;1.75;;;24.70;71.30;;;;;;4984082;28;80945;-59
2021/09/10 11:30:37;;;;;;;3.40;1.95;;;24.70;71.20;;;;;;4986221;28;81528;-60
2021/09/10 11:33:03;;;;;;;2.85;1.95;;;24.70;71.30;;;;;;4986533;28;81731;-60
2021/09/10 11:35:32;;;;;;;3.25;1.67;;;24.70;71.20;;;;;;4985805;28;81984;-60
2021/09/10 11:38:04;;;;;;;3.72;1.65;;;24.70;71.20;;;;;;4985171;28;83499;-60
2021/09/10 11:40:43;;;;;;;3.05;1.92;;;24.70;71.30;;;;;;4985338;28;82964;-60
2021/09/10 11:43:19;;;;;;;3.30;2.03;;;24.70;71.30;;;;;;4981932;28;81274;-59
2021/09/10 11:45:49;;;;;;;3.65;2.33;;;24.70;71.30;;;;;;4987014;28;81663;-59
2021/09/10 11:48:20;;;;;;;2.42;1.50;;;24.70;71.30;;;;;;4986237;28;81737;-60
2021/09/10 11:51:01;;;;;;;2.60;1.77;;;24.70;71.20;;;;;;4986719;28;82036;-60
2021/09/10 11:53:28;;;;;;;3.08;2.00;;;24.70;71.20;;;;;;4984506;28;81989;-58
2021/09/10 11:55:56;;;;;;;4.78;2.22;;;24.80;71.30;;;;;;4986605;28;81094;-59
2021/09/10 11:58:42;;;;;;;2.88;1.73;;;24.70;71.20;;;;;;4986073;28;83231;-60
2021/09/10 12:01:19;;;;;;;2.72;1.92;;;24.80;71.20;;;;;;4981225;28;84916;-60
2021/09/10 12:03:49;;;;;;;3.83;1.85;;;24.80;71.20;;;;;;4986385;28;82855;-60
2021/09/10 12:06:25;;;;;;;3.20;2.00;;;24.80;71.20;;;;;;4982952;28;81349;-60
2021/09/10 12:09:10;;;;;;;2.58;1.95;;;24.80;71.20;;;;;;4986563;28;81408;-62
2021/09/10 12:11:56;;;;;;;5.32;2.20;;;24.80;71.30;;;;;;4982183;28;82528;-63
2021/09/10 12:14:33;;;;;;;3.38;2.15;;;24.80;71.60;;;;;;4984030;28;82972;-60
2021/09/10 12:17:14;;;;;;;4.90;2.28;;;24.80;71.80;;;;;;4981091;28;81141;-60
2021/09/10 12:19:56;;;;;;;6.75;2.33;;;24.90;72.20;;;;;;4984301;28;81563;-60
2021/09/10 12:22:30;;;;;;;6.65;2.08;;;24.90;72.10;;;;;;4981114;28;81629;-60
2021/09/10 12:25:17;;;;;;;4.65;1.83;;;24.90;72.20;;;;;;4981868;28;83920;-61
2021/09/10 12:27:43;;;;;;;7.07;1.85;;;24.90;72.10;;;;;;4984001;28;82010;-59
2021/09/10 12:30:10;;;;;;;5.43;2.22;;;24.90;72.00;;;;;;4983997;28;81830;-60
2021/09/10 12:32:36;;;;;;;7.10;2.28;;;24.90;72.00;;;;;;4990799;28;83200;-60
2021/09/10 12:35:01;;;;;;;4.28;1.73;;;24.90;71.80;;;;;;4986253;28;81140;-59
2021/09/10 12:37:30;;;;;;;4.10;2.05;;;24.90;71.80;;;;;;4997230;28;81357;-60
2021/09/10 12:39:56;;;;;;;5.68;2.30;;;24.90;71.70;;;;;;4986867;28;81574;-60
2021/09/10 12:42:22;;;;;;;13.48;2.38;;;24.90;71.40;;;;;;4983968;28;84001;-60
2021/09/10 12:44:48;;;;;;;4.68;2.28;;;24.90;71.20;;;;;;4988470;28;82059;-60
2021/09/10 12:47:14;;;;;;;8.30;3.30;;;24.90;71.30;;;;;;4989018;28;82582;-59
2021/09/10 12:49:40;;;;;;;8.60;2.53;;;24.90;71.30;;;;;;4989145;28;82124;-61
2021/09/10 12:52:05;;;;;;;8.35;2.38;;;25.00;71.40;;;;;;4988526;28;84952;-60
2021/09/10 12:54:33;;;;;;;3.60;2.40;;;24.90;71.00;;;;;;4989462;28;82639;-59
2021/09/10 12:56:59;;;;;;;4.38;2.30;;;24.90;71.10;;;;;;4989346;28;81756;-60
2021/09/10 12:59:25;;;;;;;3.35;2.22;;;25.00;71.10;;;;;;4987928;28;83218;-59
2021/09/10 13:01:51;;;;;;;5.60;3.67;;;25.00;70.90;;;;;;4994695;28;81708;-60
2021/09/10 13:04:16;;;;;;;11.25;3.65;;;25.00;69.40;;;;;;5000514;28;81127;-59
2021/09/10 13:06:42;;;;;;;10.68;3.80;;;25.00;69.90;;;;;;4993613;28;82067;-62
2021/09/10 13:09:08;;;;;;;6.70;3.85;;;25.00;67.90;;;;;;4988498;28;80809;-62
2021/09/10 13:11:35;;;;;;;7.70;4.50;;;25.00;68.00;;;;;;4985964;28;82256;-61
2021/09/10 13:14:02;;;;;;;10.20;4.43;;;25.00;67.70;;;;;;4983945;28;83411;-60
2021/09/10 13:16:28;;;;;;;6.70;3.90;;;25.00;67.90;;;;;;4986682;28;82396;-60
2021/09/10 13:18:53;;;;;;;7.97;4.22;;;25.00;68.00;;;;;;4986530;28;82764;-61
2021/09/10 13:21:19;;;;;;;5.90;3.42;;;25.00;68.20;;;;;;4986811;28;82723;-61
2021/09/10 13:23:46;;;;;;;7.20;4.32;;;24.90;68.10;;;;;;4985847;28;81056;-61
2021/09/10 13:26:12;;;;;;;8.63;5.72;;;24.90;68.20;;;;;;4989714;28;81949;-61
2021/09/10 13:28:38;;;;;;;8.80;5.05;;;24.80;68.60;;;;;;4986424;28;81570;-60
2021/09/10 13:31:04;;;;;;;8.07;4.70;;;24.80;68.30;;;;;;4986129;28;82321;-61
2021/09/10 13:33:29;;;;;;;8.30;4.45;;;24.70;68.90;;;;;;4984043;28;81167;-60
2021/09/10 13:35:55;;;;;;;10.18;4.95;;;24.70;69.40;;;;;;4985643;28;81230;-61
2021/09/10 13:38:21;;;;;;;7.78;4.40;;;24.60;69.00;;;;;;4986891;28;81335;-61
2021/09/10 13:40:47;;;;;;;9.65;6.32;;;24.60;69.00;;;;;;4985364;28;82541;-60
2021/09/10 13:43:13;;;;;;;9.07;4.75;;;24.60;69.40;;;;;;4986959;28;84681;-60
2021/09/10 13:45:39;;;;;;;7.35;4.50;;;24.60;69.80;;;;;;4986532;28;81527;-61
2021/09/10 13:48:05;;;;;;;10.00;5.13;;;24.60;69.70;;;;;;4984016;28;83443;-61
2021/09/10 13:50:31;;;;;;;6.70;4.32;;;24.60;69.30;;;;;;4986354;28;81971;-61
2021/09/10 13:52:57;;;;;;;10.80;4.93;;;24.60;69.90;;;;;;4986706;28;81200;-61
2021/09/10 13:55:22;;;;;;;11.38;6.32;;;24.60;70.10;;;;;;4981157;28;81413;-61
2021/09/10 13:57:49;;;;;;;9.95;5.72;;;24.60;70.10;;;;;;4986448;28;83524;-60
2021/09/10 14:00:15;;;;;;;11.82;5.22;;;24.50;70.30;;;;;;4984779;28;82967;-60
2021/09/10 14:02:41;;;;;;;11.52;5.03;;;24.50;71.10;;;;;;4983197;28;82019;-62
2021/09/10 14:05:08;;;;;;;8.30;4.43;;;24.60;70.70;;;;;;4985912;28;81971;-61
2021/09/10 14:07:33;;;;;;;9.40;4.75;;;24.60;70.60;;;;;;4987633;28;85224;-59
2021/09/10 14:09:59;;;;;;;8.27;5.00;;;24.60;71.30;;;;;;4984477;28;82192;-60
2021/09/10 14:12:25;;;;;;;8.98;4.78;;;24.60;71.00;;;;;;4985079;28;81221;-60
2021/09/10 14:14:51;;;;;;;8.18;4.25;;;24.60;70.70;;;;;;4985346;28;81539;-61
2021/09/10 14:17:17;;;;;;;8.73;4.45;;;24.70;70.30;;;;;;4984777;28;81214;-61
2021/09/10 14:19:43;;;;;;;10.95;4.78;;;24.70;70.30;;;;;;4987153;28;81745;-60
2021/09/10 14:22:09;;;;;;;9.98;4.43;;;24.70;70.00;;;;;;4984822;28;82195;-59
2021/09/10 14:24:34;;;;;;;7.60;4.78;;;24.70;69.80;;;;;;4983650;28;82300;-61
2021/09/10 14:27:00;;;;;;;10.13;4.97;;;24.70;69.70;;;;;;4984926;28;82039;-61
2021/09/10 14:29:26;;;;;;;13.50;4.82;;;24.70;69.90;;;;;;4987572;28;82597;-60
2021/09/10 14:31:52;;;;;;;9.15;4.80;;;24.70;70.10;;;;;;4989120;28;81959;-62
2021/09/10 14:34:17;;;;;;;10.27;5.25;;;24.70;69.70;;;;;;4986704;28;81423;-62
2021/09/10 14:36:43;;;;;;;8.88;4.88;;;24.70;70.20;;;;;;4985760;28;81847;-61
2021/09/10 14:39:10;;;;;;;9.02;4.95;;;24.70;70.20;;;;;;4984343;28;83694;-61
2021/09/10 14:41:36;;;;;;;9.95;4.78;;;24.70;70.30;;;;;;4982652;28;82413;-60
2021/09/10 14:44:02;;;;;;;8.15;4.88;;;24.70;69.30;;;;;;4983639;28;81659;-60
2021/09/10 14:46:27;;;;;;;10.60;4.50;;;24.70;70.30;;;;;;4977056;28;81894;-61
2021/09/10 14:48:54;;;;;;;7.63;4.97;;;24.70;69.60;;;;;;4980818;28;82077;-62
2021/09/10 14:51:20;;;;;;;10.15;4.72;;;24.70;70.20;;;;;;4980039;28;83671;-61
2021/09/10 14:53:47;;;;;;;7.45;4.88;;;24.70;69.90;;;;;;4983270;28;82007;-61
2021/09/10 14:56:12;;;;;;;7.53;4.68;;;24.60;70.50;;;;;;4983991;28;81676;-62
2021/09/10 14:58:38;;;;;;;8.27;4.97;;;24.60;70.60;;;;;;4982897;28;83331;-62
2021/09/10 15:01:11;;;;;;;10.80;4.47;;;24.60;70.60;;;;;;4984650;28;85254;-61
2021/09/10 15:03:39;;;;;;;8.82;4.55;;;24.60;70.20;;;;;;4982176;28;81298;-59
2021/09/10 15:06:06;;;;;;;10.52;4.68;;;24.60;71.00;;;;;;4979786;28;81690;-62
2021/09/10 15:08:32;;;;;;;10.02;5.18;;;24.60;70.30;;;;;;4983808;28;82639;-61
2021/09/10 15:10:57;;;;;;;10.90;5.00;;;24.70;70.10;;;;;;4983700;28;81122;-61
2021/09/10 15:13:23;;;;;;;8.13;4.07;;;24.70;70.10;;;;;;4982745;28;81264;-62
2021/09/10 15:15:49;;;;;;;11.02;5.38;;;24.60;70.10;;;;;;4977428;28;83022;-61
2021/09/10 15:18:15;;;;;;;8.32;4.43;;;24.60;69.60;;;;;;4984596;28;83245;-58
2021/09/10 15:20:42;;;;;;;13.05;4.22;;;24.60;69.30;;;;;;4982947;28;82995;-57
2021/09/10 15:23:08;;;;;;;8.85;4.43;;;24.60;70.50;;;;;;4980963;28;81054;-57
2021/09/10 15:25:34;;;;;;;10.07;4.82;;;24.60;70.20;;;;;;4979658;28;84354;-62
2021/09/10 15:28:01;;;;;;;7.72;4.05;;;24.60;69.90;;;;;;4981511;28;82221;-60
2021/09/10 15:30:31;;;;;;;9.55;4.05;;;24.60;70.10;;;;;;4977668;28;82801;-57
2021/09/10 15:32:57;;;;;;;7.18;4.43;;;24.50;70.40;;;;;;4985652;28;81683;-61
2021/09/10 15:35:23;;;;;;;8.13;4.45;;;24.50;70.30;;;;;;4987135;28;81855;-61
2021/09/10 15:37:48;;;;;;;10.15;5.57;;;24.50;70.90;;;;;;4973528;28;81859;-60
2021/09/10 15:40:14;;;;;;;8.77;5.40;;;24.50;71.70;;;;;;4979480;28;81184;-60
2021/09/10 15:42:40;;;;;;;9.00;5.75;;;24.50;72.30;;;;;;4980084;28;82241;-60
2021/09/10 15:45:06;;;;;;;11.85;5.88;;;24.40;72.60;;;;;;4982924;28;81714;-61
2021/09/10 15:47:31;;;;;;;10.00;6.18;;;24.40;73.00;;;;;;4985630;28;84042;-61
2021/09/10 15:49:57;;;;;;;12.20;6.40;;;24.40;73.50;;;;;;4980563;28;82623;-60
2021/09/10 15:52:23;;;;;;;9.18;5.88;;;24.30;74.90;;;;;;4980013;28;81287;-60
2021/09/10 15:54:49;;;;;;;15.10;7.50;;;24.20;74.80;;;;;;4982431;28;84056;-60
2021/09/10 15:57:14;;;;;;;14.63;6.65;;;24.10;75.30;;;;;;4979314;28;82175;-60
2021/09/10 15:59:41;;;;;;;10.45;6.22;;;24.00;75.60;;;;;;4985537;28;81926;-62
2021/09/10 16:02:07;;;;;;;11.60;6.72;;;24.00;75.90;;;;;;4980300;28;80972;-61
2021/09/10 16:04:32;;;;;;;11.93;6.85;;;24.00;76.20;;;;;;4982427;28;81114;-60
2021/09/10 16:06:58;;;;;;;11.07;6.07;;;24.00;76.10;;;;;;4985133;28;83138;-60
2021/09/10 16:09:24;;;;;;;13.43;7.00;;;23.90;75.90;;;;;;4984610;28;83596;-61
2021/09/10 16:11:49;;;;;;;10.82;7.18;;;24.00;76.20;;;;;;4985129;28;82482;-60
2021/09/10 16:14:16;;;;;;;12.30;7.47;;;24.00;76.40;;;;;;4979768;28;81746;-60
2021/09/10 16:16:42;;;;;;;10.45;7.57;;;23.90;77.10;;;;;;4980092;28;83743;-58
2021/09/10 16:19:08;;;;;;;11.48;6.95;;;23.70;76.60;;;;;;4982945;28;82304;-60
2021/09/10 16:21:34;;;;;;;14.00;7.32;;;23.80;76.40;;;;;;4979293;28;81368;-60
2021/09/10 16:23:59;;;;;;;11.23;7.38;;;23.80;75.90;;;;;;4985104;28;80958;-59
2021/09/10 16:26:26;;;;;;;12.90;7.30;;;23.60;77.00;;;;;;4981148;28;82371;-58
2021/09/10 16:28:52;;;;;;;14.20;7.65;;;23.50;77.10;;;;;;4983228;28;83521;-59
2021/09/10 16:31:18;;;;;;;11.18;7.15;;;23.40;77.80;;;;;;4980982;28;82311;-59
2021/09/10 16:33:44;;;;;;;12.02;6.63;;;23.30;77.80;;;;;;4979403;28;81467;-58
2021/09/10 16:36:10;;;;;;;13.50;7.20;;;23.50;77.70;;;;;;4984909;28;82681;-58
2021/09/10 16:38:37;;;;;;;13.85;8.48;;;23.60;77.70;;;;;;4978801;28;82427;-59
2021/09/10 16:41:03;;;;;;;8.63;5.97;;;23.60;77.80;;;;;;4983266;28;81437;-59
2021/09/10 16:43:28;;;;;;;14.45;7.32;;;23.50;78.40;;;;;;4982489;28;82534;-63
2021/09/10 16:45:54;;;;;;;13.18;6.82;;;23.50;78.70;;;;;;4983602;28;83334;-59
2021/09/10 16:48:20;;;;;;;11.43;7.13;;;23.40;79.30;;;;;;4981187;28;81436;-58
2021/09/10 16:50:46;;;;;;;10.30;6.20;;;23.30;79.50;;;;;;4985137;28;80994;-58
2021/09/10 16:53:11;;;;;;;10.90;6.13;;;23.30;80.40;;;;;;4984672;28;82098;-59
2021/09/10 16:55:37;;;;;;;9.80;5.53;;;23.40;78.80;;;;;;4980850;28;82569;-59
2021/09/10 16:58:03;;;;;;;12.63;7.57;;;23.60;77.80;;;;;;4981304;28;82358;-59
2021/09/10 17:00:28;;;;;;;11.13;7.50;;;23.50;77.80;;;;;;4982872;28;81034;-59
2021/09/10 17:02:54;;;;;;;12.68;8.55;;;23.40;78.50;;;;;;4980523;28;81311;-59
2021/09/10 17:05:20;;;;;;;14.27;7.85;;;23.20;78.70;;;;;;4982727;28;82667;-59
2021/09/10 17:07:46;;;;;;;14.55;8.85;;;23.20;78.50;;;;;;4980453;28;82155;-59
2021/09/10 17:10:13;;;;;;;12.82;8.50;;;23.10;78.50;;;;;;4982091;28;81709;-59
2021/09/10 17:12:38;;;;;;;13.02;7.93;;;23.00;79.80;;;;;;4985068;28;81994;-59
2021/09/10 17:15:05;;;;;;;13.68;7.57;;;23.00;79.20;;;;;;4979677;28;82466;-58